createdAt,value
2023-11-07T00:02:17.417Z,12.43
2023-11-07T00:04:48.951Z,12.35
2023-11-07T00:07:24.632Z,12.90
2023-11-07T00:09:56.221Z,13.27
2023-11-07T00:12:27.749Z,12.40
2023-11-07T00:14:59.573Z,12.60
2023-11-07T00:17:31.440Z,10.95
2023-11-07T00:20:05.687Z,12.20
2023-11-07T00:22:37.350Z,12.48
2023-11-07T00:25:09.794Z,13.75
2023-11-07T00:27:41.360Z,11.88
2023-11-07T00:30:13.009Z,10.95
2023-11-07T00:32:44.786Z,14.40
2023-11-07T00:35:16.464Z,13.20
2023-11-07T00:37:48.123Z,13.82
2023-11-07T00:40:19.841Z,13.45
2023-11-07T00:42:51.381Z,13.05
2023-11-07T00:45:22.987Z,13.45
2023-11-07T00:47:54.633Z,14.85
2023-11-07T00:50:26.245Z,13.35
2023-11-07T00:52:57.996Z,12.48
2023-11-07T00:55:29.489Z,10.88
2023-11-07T00:58:01.123Z,13.02
2023-11-07T01:00:34.814Z,12.82
2023-11-07T01:03:06.587Z,12.77
2023-11-07T01:05:39.450Z,12.30
2023-11-07T01:08:11.178Z,11.18
2023-11-07T01:10:42.774Z,11.48
2023-11-07T01:13:15.926Z,12.63
2023-11-07T01:15:47.475Z,10.77
2023-11-07T01:18:19.063Z,11.52
2023-11-07T01:20:50.758Z,12.82
2023-11-07T01:23:22.295Z,12.13
2023-11-07T01:25:53.921Z,10.80
2023-11-07T01:28:26.555Z,12.32
2023-11-07T01:30:58.301Z,9.82
2023-11-07T01:33:29.879Z,10.90
2023-11-07T01:36:01.552Z,12.20
2023-11-07T01:38:34.542Z,11.23
2023-11-07T01:41:06.245Z,9.88
2023-11-07T01:43:39.154Z,7.53
2023-11-07T01:46:10.801Z,6.93
2023-11-07T01:48:43.366Z,6.68
2023-11-07T01:51:15.565Z,7.68
2023-11-07T01:53:48.223Z,8.10
2023-11-07T01:56:21.246Z,8.50
2023-11-07T01:58:55.535Z,8.80
2023-11-07T02:01:29.739Z,9.10
2023-11-07T02:04:02.580Z,8.98
2023-11-07T02:06:34.569Z,9.10
2023-11-07T02:09:09.340Z,8.65
2023-11-07T02:11:41.007Z,7.97
2023-11-07T02:14:31.955Z,8.85
2023-11-07T02:17:06.694Z,9.20
2023-11-07T02:19:38.224Z,8.35
2023-11-07T02:22:13.687Z,9.93
2023-11-07T02:24:45.336Z,11.60
2023-11-07T02:27:19.031Z,9.05
2023-11-07T02:29:50.544Z,10.45
2023-11-07T02:32:22.114Z,10.45
2023-11-07T02:34:53.614Z,10.68
2023-11-07T02:37:25.243Z,9.15
2023-11-07T02:39:56.751Z,10.32
2023-11-07T02:42:29.736Z,9.70
2023-11-07T02:45:01.780Z,10.85
2023-11-07T02:47:35.113Z,8.75
2023-11-07T02:50:11.650Z,7.88
2023-11-07T02:52:43.387Z,8.70
2023-11-07T02:55:15.073Z,9.23
2023-11-07T02:57:46.635Z,9.50
2023-11-07T03:00:18.816Z,11.85
2023-11-07T03:02:50.444Z,10.45
2023-11-07T03:05:22.468Z,10.50
2023-11-07T03:07:54.233Z,11.30
2023-11-07T03:10:26.928Z,10.25
2023-11-07T03:12:58.594Z,10.10
2023-11-07T03:15:30.262Z,10.32
2023-11-07T03:18:02.296Z,9.10
2023-11-07T03:20:34.072Z,10.15
2023-11-07T03:23:05.677Z,9.07
2023-11-07T03:25:37.490Z,9.85
2023-11-07T03:28:09.582Z,9.25
2023-11-07T03:30:42.386Z,10.98
2023-11-07T03:33:15.733Z,11.52
2023-11-07T03:35:48.184Z,10.55
2023-11-07T03:38:20.817Z,10.57
2023-11-07T03:40:52.395Z,8.82
2023-11-07T03:43:23.915Z,10.30
2023-11-07T03:45:55.771Z,10.38
2023-11-07T03:48:27.446Z,10.35
2023-11-07T03:50:59.411Z,11.35
2023-11-07T03:53:32.152Z,12.10
2023-11-07T03:56:03.954Z,10.73
2023-11-07T03:58:35.548Z,10.95
2023-11-07T04:01:07.922Z,11.15
2023-11-07T04:03:39.811Z,12.07
2023-11-07T04:06:11.473Z,11.80
2023-11-07T04:08:43.113Z,12.55
2023-11-07T04:11:15.918Z,11.05
2023-11-07T04:13:48.630Z,14.13
2023-11-07T04:16:20.383Z,12.38
2023-11-07T04:18:54.568Z,12.07
2023-11-07T04:21:26.459Z,11.98
2023-11-07T04:23:58.015Z,10.90
2023-11-07T04:26:29.595Z,10.82
2023-11-07T04:29:01.152Z,10.63
2023-11-07T04:31:32.684Z,11.88
2023-11-07T04:34:04.274Z,11.55
2023-11-07T04:36:38.217Z,12.13
2023-11-07T04:39:10.748Z,11.38
2023-11-07T04:41:42.678Z,11.65
2023-11-07T04:44:14.295Z,9.65
2023-11-07T04:46:45.835Z,9.75
2023-11-07T04:49:17.512Z,10.27
2023-11-07T04:51:49.176Z,9.82
2023-11-07T04:54:20.720Z,10.02
2023-11-07T04:56:55.831Z,9.48
2023-11-07T04:59:28.013Z,8.23
2023-11-07T05:02:00.153Z,8.85
2023-11-07T05:04:32.026Z,10.90
2023-11-07T05:07:04.707Z,7.68
2023-11-07T05:09:36.248Z,8.65
2023-11-07T05:12:09.400Z,8.90
2023-11-07T05:14:41.145Z,8.60
2023-11-07T05:17:12.663Z,9.38
2023-11-07T05:19:44.238Z,9.60
2023-11-07T05:22:15.785Z,9.63
2023-11-07T05:24:47.402Z,10.68
2023-11-07T05:27:18.969Z,8.73
2023-11-07T05:29:50.604Z,10.15
2023-11-07T05:32:22.164Z,9.18
2023-11-07T05:34:53.773Z,10.07
2023-11-07T05:37:25.284Z,9.05
2023-11-07T05:39:57.538Z,10.27
2023-11-07T05:42:29.064Z,10.77
2023-11-07T05:45:02.071Z,8.77
2023-11-07T05:47:34.081Z,10.98
2023-11-07T05:50:06.689Z,9.35
2023-11-07T05:52:38.513Z,9.05
2023-11-07T05:55:11.832Z,12.00
2023-11-07T05:57:43.756Z,8.88
2023-11-07T06:00:16.293Z,8.95
2023-11-07T06:02:48.698Z,8.75
2023-11-07T06:05:22.122Z,8.77
2023-11-07T06:07:57.019Z,10.43
2023-11-07T06:10:29.094Z,9.90
2023-11-07T06:13:00.674Z,10.15
2023-11-07T06:15:33.236Z,8.80
2023-11-07T06:18:04.974Z,11.15
2023-11-07T06:20:37.121Z,9.40
2023-11-07T06:23:09.279Z,10.50
2023-11-07T06:25:41.370Z,9.45
2023-11-07T06:28:12.920Z,8.25
2023-11-07T06:30:44.814Z,10.25
2023-11-07T06:33:16.420Z,9.75
2023-11-07T06:35:50.370Z,11.32
2023-11-07T06:38:23.511Z,8.57
2023-11-07T06:40:57.016Z,9.07
2023-11-07T06:43:28.604Z,9.07
2023-11-07T06:46:00.705Z,10.27
2023-11-07T06:48:32.546Z,9.00
2023-11-07T06:51:04.507Z,8.38
2023-11-07T06:53:36.045Z,12.45
2023-11-07T06:56:08.048Z,12.30
2023-11-07T06:58:39.594Z,10.30
2023-11-07T07:01:14.571Z,9.55
2023-11-07T07:03:46.978Z,10.20
2023-11-07T07:06:19.600Z,10.55
2023-11-07T07:08:52.429Z,11.15
2023-11-07T07:11:24.053Z,11.98
2023-11-07T07:13:56.879Z,10.48
2023-11-07T07:16:31.578Z,10.00
2023-11-07T07:19:07.892Z,9.70
2023-11-07T07:21:39.696Z,12.55
2023-11-07T07:24:20.706Z,9.65
2023-11-07T07:26:52.357Z,11.30
2023-11-07T07:29:25.146Z,12.95
2023-11-07T07:31:58.560Z,12.57
2023-11-07T07:34:30.494Z,12.90
2023-11-07T07:37:02.107Z,12.60
2023-11-07T07:39:36.114Z,12.25
2023-11-07T07:42:11.912Z,10.52
2023-11-07T07:44:44.157Z,11.27
2023-11-07T07:47:16.755Z,12.15
2023-11-07T07:49:48.472Z,10.65
2023-11-07T07:52:23.865Z,8.75
2023-11-07T07:55:09.358Z,9.23
2023-11-07T07:57:47.665Z,9.95
2023-11-07T08:00:19.575Z,10.23
2023-11-07T08:02:54.371Z,9.75
2023-11-07T08:05:26.158Z,11.90
2023-11-07T08:07:57.884Z,12.93
2023-11-07T08:10:29.458Z,10.68
2023-11-07T08:13:01.173Z,13.95
2023-11-07T08:15:32.705Z,11.98
2023-11-07T08:18:08.459Z,11.07
2023-11-07T08:20:41.377Z,11.27
2023-11-07T08:23:13.001Z,10.63
2023-11-07T08:25:44.685Z,11.55
2023-11-07T08:28:16.258Z,10.25
2023-11-07T08:30:48.197Z,10.30
2023-11-07T08:33:19.947Z,10.82
2023-11-07T08:35:52.652Z,10.40
2023-11-07T08:38:26.214Z,9.30
2023-11-07T08:40:58.178Z,8.93
2023-11-07T08:43:29.987Z,10.48
2023-11-07T08:46:01.838Z,9.73
2023-11-07T08:48:33.472Z,10.10
2023-11-07T08:51:05.385Z,11.25
2023-11-07T08:53:38.409Z,9.57
2023-11-07T08:56:13.736Z,9.55
2023-11-07T08:58:46.853Z,11.48
2023-11-07T09:01:20.177Z,9.00
2023-11-07T09:03:52.805Z,8.63
2023-11-07T09:06:24.524Z,10.23
2023-11-07T09:08:56.574Z,10.88
2023-11-07T09:11:28.161Z,11.25
2023-11-07T09:13:59.784Z,10.93
2023-11-07T09:16:31.355Z,8.85
2023-11-07T09:19:03.013Z,8.77
2023-11-07T09:21:34.638Z,9.80
2023-11-07T09:24:06.785Z,9.48
2023-11-07T09:26:38.360Z,8.18
2023-11-07T09:29:09.891Z,7.47
2023-11-07T09:31:42.128Z,8.27
2023-11-07T09:34:16.228Z,9.75
2023-11-07T09:36:50.942Z,7.40
2023-11-07T09:39:23.220Z,7.18
2023-11-07T09:41:55.032Z,6.10
2023-11-07T09:44:28.512Z,6.10
2023-11-07T09:47:00.504Z,7.53
2023-11-07T09:49:32.196Z,7.00
2023-11-07T09:52:06.991Z,7.53
2023-11-07T09:54:39.938Z,7.05
2023-11-07T09:57:12.747Z,6.05
2023-11-07T09:59:54.368Z,8.82
2023-11-07T10:02:27.378Z,6.53
2023-11-07T10:04:59.631Z,8.52
2023-11-07T10:07:31.238Z,9.43
2023-11-07T10:10:06.511Z,8.15
2023-11-07T10:12:44.032Z,8.77
2023-11-07T10:15:20.427Z,6.75
2023-11-07T10:18:02.398Z,8.48
2023-11-07T10:20:35.283Z,7.95
2023-11-07T10:23:12.229Z,8.45
2023-11-07T10:25:50.361Z,8.75
2023-11-07T10:28:22.845Z,5.95
2023-11-07T10:30:54.674Z,7.07
2023-11-07T10:33:33.795Z,7.53
2023-11-07T10:36:05.903Z,6.47
2023-11-07T10:38:40.914Z,8.65
2023-11-07T10:41:27.547Z,6.40
2023-11-07T10:43:59.466Z,5.47
2023-11-07T10:46:31.832Z,12.45
2023-11-07T10:49:06.321Z,6.93
2023-11-07T10:51:38.856Z,5.88
2023-11-07T10:54:10.468Z,6.07
2023-11-07T10:56:45.842Z,5.68
2023-11-07T10:59:23.250Z,4.68
2023-11-07T11:02:00.010Z,5.25
2023-11-07T11:04:35.718Z,4.43
2023-11-07T11:07:09.259Z,5.47
2023-11-07T11:09:42.709Z,4.90
2023-11-07T11:12:15.975Z,9.43
2023-11-07T11:14:50.723Z,10.25
2023-11-07T11:17:43.113Z,6.05
2023-11-07T11:20:32.324Z,5.53
2023-11-07T11:23:13.587Z,5.25
2023-11-07T11:26:04.828Z,5.00
2023-11-07T11:28:44.110Z,5.50
2023-11-07T11:31:19.198Z,4.30
2023-11-07T11:34:24.749Z,4.00
2023-11-07T11:37:03.485Z,4.53
2023-11-07T11:39:35.232Z,4.35
2023-11-07T11:42:10.871Z,3.58
2023-11-07T11:44:42.964Z,4.03
2023-11-07T11:47:50.941Z,4.60
2023-11-07T11:50:22.691Z,3.70
2023-11-07T11:52:55.583Z,4.05
2023-11-07T11:56:13.391Z,4.18
2023-11-07T11:59:07.941Z,4.10
2023-11-07T12:01:53.930Z,3.45
2023-11-07T12:05:11.936Z,3.38
2023-11-07T12:07:44.642Z,3.80
2023-11-07T12:10:22.905Z,3.97
2023-11-07T12:13:02.571Z,3.35
2023-11-07T12:15:34.575Z,3.22
2023-11-07T12:18:06.293Z,3.53
2023-11-07T12:20:42.201Z,3.95
2023-11-07T12:23:16.319Z,3.78
2023-11-07T12:25:51.829Z,3.47
2023-11-07T12:28:23.606Z,4.22
2023-11-07T12:30:56.830Z,3.30
2023-11-07T12:33:41.433Z,4.35
2023-11-07T12:36:15.393Z,3.08
2023-11-07T12:38:47.359Z,3.30
2023-11-07T12:41:19.171Z,3.40
2023-11-07T12:43:51.005Z,3.30
2023-11-07T12:46:24.474Z,3.75
2023-11-07T12:48:56.403Z,3.00
2023-11-07T12:51:28.457Z,2.97
2023-11-07T12:54:05.450Z,4.07
2023-11-07T12:56:47.182Z,3.22
2023-11-07T12:59:19.088Z,3.42
2023-11-07T13:01:50.889Z,3.08
2023-11-07T13:04:22.513Z,3.38
2023-11-07T13:06:55.509Z,3.30
2023-11-07T13:09:30.183Z,3.25
2023-11-07T13:12:11.375Z,4.13
2023-11-07T13:14:43.335Z,3.88
2023-11-07T13:17:14.907Z,3.40
2023-11-07T13:19:48.450Z,3.83
2023-11-07T13:22:20.323Z,3.83
2023-11-07T13:24:51.898Z,2.88
2023-11-07T13:27:25.066Z,3.17
2023-11-07T13:29:56.955Z,3.00
2023-11-07T13:32:31.594Z,3.17
2023-11-07T13:35:04.850Z,3.38
2023-11-07T13:37:37.498Z,3.97
2023-11-07T13:40:10.776Z,4.72
2023-11-07T13:42:44.427Z,3.03
2023-11-07T13:45:16.159Z,3.42
2023-11-07T13:47:47.797Z,3.08
2023-11-07T13:50:19.587Z,3.65
2023-11-07T13:52:57.457Z,3.45
2023-11-07T13:55:29.419Z,3.08
2023-11-07T13:58:01.041Z,3.70
2023-11-07T14:00:33.423Z,3.22
2023-11-07T14:03:05.249Z,4.53
2023-11-07T14:05:37.121Z,3.75
2023-11-07T14:08:08.722Z,3.58
2023-11-07T14:10:40.502Z,4.85
2023-11-07T14:13:12.022Z,3.70
2023-11-07T14:15:43.844Z,4.35
2023-11-07T14:18:22.919Z,3.55
2023-11-07T14:20:59.861Z,4.40
2023-11-07T14:23:32.092Z,4.47
2023-11-07T14:26:05.936Z,4.53
2023-11-07T14:28:46.913Z,6.55
2023-11-07T14:31:26.926Z,3.83
2023-11-07T14:34:02.203Z,3.45
2023-11-07T14:36:34.093Z,4.25
2023-11-07T14:39:06.970Z,3.90
2023-11-07T14:41:39.448Z,4.18
2023-11-07T14:44:11.852Z,4.25
2023-11-07T14:46:45.993Z,3.50
2023-11-07T14:49:17.679Z,3.53
2023-11-07T14:51:49.487Z,3.15
2023-11-07T14:54:21.524Z,3.53
2023-11-07T14:57:00.994Z,3.85
2023-11-07T14:59:37.651Z,4.70
2023-11-07T15:02:18.016Z,3.63
2023-11-07T15:04:53.860Z,4.10
2023-11-07T15:07:25.506Z,5.15
2023-11-07T15:09:57.102Z,5.38
2023-11-07T15:12:28.791Z,4.78
2023-11-07T15:15:00.369Z,5.10
2023-11-07T15:17:31.987Z,5.07
2023-11-07T15:20:04.796Z,8.82
2023-11-07T15:22:38.101Z,4.68
2023-11-07T15:25:14.205Z,5.13
2023-11-07T15:27:47.782Z,4.53
2023-11-07T15:30:19.489Z,5.05
2023-11-07T15:32:54.396Z,5.55
2023-11-07T15:35:26.931Z,5.15
2023-11-07T15:38:01.650Z,6.30
2023-11-07T15:40:33.694Z,5.25
2023-11-07T15:43:06.049Z,5.30
2023-11-07T15:45:38.342Z,4.63
2023-11-07T15:48:11.502Z,5.18
2023-11-07T15:50:43.657Z,4.00
2023-11-07T15:53:15.244Z,4.68
2023-11-07T15:55:46.876Z,5.28
2023-11-07T15:58:18.493Z,4.88
2023-11-07T16:00:51.237Z,4.72
2023-11-07T16:03:22.874Z,4.55
2023-11-07T16:05:55.115Z,5.47
2023-11-07T16:08:27.252Z,4.25
2023-11-07T16:10:58.865Z,5.40
2023-11-07T16:13:30.483Z,4.38
2023-11-07T16:16:03.819Z,7.43
2023-11-07T16:18:36.622Z,5.65
2023-11-07T16:21:09.573Z,6.10
2023-11-07T16:23:43.829Z,4.03
2023-11-07T16:26:16.672Z,5.47
2023-11-07T16:28:48.479Z,5.15
2023-11-07T16:31:20.090Z,5.50
2023-11-07T16:33:52.171Z,4.80
2023-11-07T16:36:25.882Z,6.65
2023-11-07T16:38:57.678Z,4.47
2023-11-07T16:41:29.483Z,7.00
2023-11-07T16:44:01.283Z,7.40
2023-11-07T16:46:32.915Z,8.80
2023-11-07T16:49:05.532Z,5.55
2023-11-07T16:51:37.577Z,6.13
2023-11-07T16:54:09.967Z,5.78
2023-11-07T16:56:43.338Z,6.55
2023-11-07T16:59:15.476Z,6.35
2023-11-07T17:01:47.545Z,7.60
2023-11-07T17:04:19.958Z,6.50
2023-11-07T17:06:52.034Z,6.68
2023-11-07T17:09:24.267Z,6.80
2023-11-07T17:11:56.771Z,7.80
2023-11-07T17:14:29.614Z,7.40
2023-11-07T17:17:01.264Z,6.13
2023-11-07T17:19:33.234Z,8.80
2023-11-07T17:22:05.492Z,7.95
2023-11-07T17:24:38.933Z,6.80
2023-11-07T17:27:11.155Z,13.52
2023-11-07T17:29:42.871Z,11.35
2023-11-07T17:32:15.544Z,10.45
2023-11-07T17:34:47.439Z,9.40
2023-11-07T17:37:19.204Z,9.55
2023-11-07T17:39:50.862Z,9.52
2023-11-07T17:42:22.506Z,7.68
2023-11-07T17:44:54.368Z,8.10
2023-11-07T17:47:27.086Z,8.32
2023-11-07T17:49:59.539Z,7.90
2023-11-07T17:52:31.432Z,8.02
2023-11-07T17:55:03.472Z,9.75
2023-11-07T17:57:35.691Z,7.95
2023-11-07T18:00:07.866Z,7.15
2023-11-07T18:02:39.836Z,8.93
2023-11-07T18:05:11.817Z,8.43
2023-11-07T18:07:43.480Z,7.22
2023-11-07T18:10:15.067Z,8.13
2023-11-07T18:12:46.766Z,7.68
2023-11-07T18:15:18.452Z,8.32
2023-11-07T18:17:50.278Z,6.68
2023-11-07T18:20:21.929Z,7.32
2023-11-07T18:22:53.456Z,7.40
2023-11-07T18:25:25.174Z,9.60
2023-11-07T18:27:56.893Z,7.65
2023-11-07T18:30:28.590Z,9.25
2023-11-07T18:33:00.356Z,7.50
2023-11-07T18:35:32.274Z,7.78
2023-11-07T18:38:04.595Z,8.52
2023-11-07T18:40:36.463Z,9.00
2023-11-07T18:43:08.143Z,9.70
2023-11-07T18:45:39.901Z,8.65
2023-11-07T18:48:11.933Z,9.63
2023-11-07T18:50:43.622Z,10.35
2023-11-07T18:53:16.005Z,9.70
2023-11-07T18:55:47.824Z,8.35
2023-11-07T18:58:19.426Z,7.15
2023-11-07T19:00:51.338Z,9.00
2023-11-07T19:03:23.089Z,12.60
2023-11-07T19:05:54.837Z,6.68
2023-11-07T19:08:27.028Z,9.48
2023-11-07T19:10:58.828Z,8.38
2023-11-07T19:13:30.699Z,9.07
2023-11-07T19:16:05.152Z,6.60
2023-11-07T19:18:39.295Z,7.53
2023-11-07T19:21:11.082Z,7.32
2023-11-07T19:23:43.040Z,6.68
2023-11-07T19:26:14.951Z,6.07
2023-11-07T19:28:47.616Z,6.97
2023-11-07T19:31:19.484Z,7.28
2023-11-07T19:33:51.552Z,8.05
2023-11-07T19:36:25.063Z,6.70
2023-11-07T19:38:57.034Z,7.00
2023-11-07T19:41:29.156Z,7.28
2023-11-07T19:44:01.051Z,7.63
2023-11-07T19:46:34.212Z,7.45
2023-11-07T19:49:07.202Z,7.90
2023-11-07T19:51:41.448Z,10.27
2023-11-07T19:54:13.891Z,6.25
2023-11-07T19:56:45.555Z,7.47
2023-11-07T19:59:18.485Z,7.57
2023-11-07T20:01:50.421Z,8.50
2023-11-07T20:04:22.423Z,9.18
2023-11-07T20:06:54.381Z,9.30
2023-11-07T20:09:26.639Z,7.55
2023-11-07T20:11:58.641Z,8.93
2023-11-07T20:14:30.546Z,8.10
2023-11-07T20:17:02.924Z,8.98
2023-11-07T20:19:35.449Z,9.23
2023-11-07T20:22:07.659Z,9.65
2023-11-07T20:24:40.631Z,10.88
2023-11-07T20:27:13.367Z,8.95
2023-11-07T20:29:45.906Z,8.18
2023-11-07T20:32:17.938Z,8.65
2023-11-07T20:34:50.812Z,9.75
2023-11-07T20:37:23.395Z,8.55
2023-11-07T20:39:55.351Z,8.38
2023-11-07T20:42:27.623Z,8.43
2023-11-07T20:45:07.935Z,8.50
2023-11-07T20:47:43.031Z,8.57
2023-11-07T20:50:17.582Z,8.60
2023-11-07T20:52:49.783Z,9.52
2023-11-07T20:55:21.907Z,8.63
2023-11-07T20:57:58.816Z,9.38
2023-11-07T21:00:36.851Z,8.80
2023-11-07T21:03:09.037Z,11.00
2023-11-07T21:05:41.146Z,9.60
2023-11-07T21:08:13.303Z,8.57
2023-11-07T21:10:46.340Z,10.68
2023-11-07T21:13:18.408Z,12.25
2023-11-07T21:15:50.238Z,8.93
2023-11-07T21:18:22.603Z,8.27
2023-11-07T21:20:54.860Z,8.10
2023-11-07T21:23:26.530Z,8.88
2023-11-07T21:25:58.140Z,8.48
2023-11-07T21:28:29.918Z,9.02
2023-11-07T21:31:05.242Z,9.38
2023-11-07T21:33:39.909Z,9.18
2023-11-07T21:36:12.319Z,9.40
2023-11-07T21:38:44.721Z,8.63
2023-11-07T21:41:16.358Z,8.43
2023-11-07T21:43:49.189Z,9.90
2023-11-07T21:46:21.066Z,8.48
2023-11-07T21:48:52.819Z,9.10
2023-11-07T21:51:24.626Z,9.15
2023-11-07T21:53:56.649Z,7.18
2023-11-07T21:56:30.348Z,8.57
2023-11-07T21:59:02.245Z,8.82
2023-11-07T22:01:35.552Z,7.95
2023-11-07T22:04:08.127Z,8.27
2023-11-07T22:06:40.221Z,9.25
2023-11-07T22:09:11.922Z,10.13
2023-11-07T22:11:44.833Z,8.98
2023-11-07T22:14:16.718Z,9.15
2023-11-07T22:16:48.400Z,8.30
2023-11-07T22:19:20.198Z,9.80
2023-11-07T22:21:52.013Z,8.43
2023-11-07T22:24:23.866Z,8.23
2023-11-07T22:26:56.307Z,7.78
2023-11-07T22:29:27.908Z,7.75
2023-11-07T22:31:59.536Z,8.10
2023-11-07T22:34:31.501Z,8.23
2023-11-07T22:37:03.566Z,8.23
2023-11-07T22:39:35.651Z,8.60
2023-11-07T22:42:07.373Z,7.60
2023-11-07T22:44:39.542Z,6.72
2023-11-07T22:47:11.161Z,7.13
2023-11-07T22:49:42.755Z,7.47
2023-11-07T22:52:14.573Z,7.85
2023-11-07T22:54:46.125Z,7.53
2023-11-07T22:57:17.727Z,7.47
2023-11-07T22:59:49.632Z,8.10
2023-11-07T23:02:21.341Z,7.22
2023-11-07T23:04:52.936Z,7.38
2023-11-07T23:07:24.518Z,6.93
2023-11-07T23:09:56.063Z,7.93
2023-11-07T23:12:27.798Z,7.72
2023-11-07T23:15:00.516Z,7.60
2023-11-07T23:17:32.356Z,8.13
2023-11-07T23:20:07.930Z,7.88
2023-11-07T23:22:43.107Z,7.20
2023-11-07T23:25:14.727Z,7.40
2023-11-07T23:27:46.717Z,8.60
2023-11-07T23:30:18.505Z,9.63
2023-11-07T23:32:50.255Z,9.27
2023-11-07T23:35:25.199Z,10.10
2023-11-07T23:37:57.726Z,10.25
2023-11-07T23:40:30.248Z,11.68
2023-11-07T23:43:03.217Z,10.85
2023-11-07T23:45:34.775Z,10.23
2023-11-07T23:48:06.582Z,11.48
2023-11-07T23:50:38.216Z,11.38
2023-11-07T23:53:11.159Z,10.85
2023-11-07T23:55:42.693Z,11.43
2023-11-07T23:58:14.287Z,11.38
